sensor_id;sensor_type;location;lat;lon;timestamp;P1;durP1;ratioP1;P2;durP2;ratioP2
5465;SDS011;2755;50.728;7.108;2023-02-12T00:01:18;38.37;;;21.97;;
5465;SDS011;2755;50.728;7.108;2023-02-12T00:03:44;34.40;;;21.67;;
5465;SDS011;2755;50.728;7.108;2023-02-12T00:06:10;32.67;;;21.43;;
5465;SDS011;2755;50.728;7.108;2023-02-12T00:08:36;35.53;;;20.03;;
5465;SDS011;2755;50.728;7.108;2023-02-12T00:11:10;42.40;;;23.13;;
5465;SDS011;2755;50.728;7.108;2023-02-12T00:13:37;33.57;;;19.70;;
5465;SDS011;2755;50.728;7.108;2023-02-12T00:16:04;34.37;;;19.70;;
5465;SDS011;2755;50.728;7.108;2023-02-12T00:18:33;31.50;;;19.20;;
5465;SDS011;2755;50.728;7.108;2023-02-12T00:21:00;35.60;;;20.60;;
5465;SDS011;2755;50.728;7.108;2023-02-12T00:23:26;34.73;;;20.83;;
5465;SDS011;2755;50.728;7.108;2023-02-12T00:25:51;37.83;;;21.63;;
5465;SDS011;2755;50.728;7.108;2023-02-12T00:28:17;39.60;;;21.47;;
5465;SDS011;2755;50.728;7.108;2023-02-12T00:30:42;38.20;;;20.73;;
5465;SDS011;2755;50.728;7.108;2023-02-12T00:33:08;40.70;;;24.17;;
5465;SDS011;2755;50.728;7.108;2023-02-12T00:35:34;37.00;;;22.07;;
5465;SDS011;2755;50.728;7.108;2023-02-12T00:37:59;37.30;;;20.27;;
5465;SDS011;2755;50.728;7.108;2023-02-12T00:40:25;34.90;;;20.97;;
5465;SDS011;2755;50.728;7.108;2023-02-12T00:42:51;42.60;;;24.50;;
5465;SDS011;2755;50.728;7.108;2023-02-12T00:45:17;43.70;;;25.40;;
5465;SDS011;2755;50.728;7.108;2023-02-12T00:47:42;48.27;;;25.10;;
5465;SDS011;2755;50.728;7.108;2023-02-12T00:50:08;45.00;;;24.77;;
5465;SDS011;2755;50.728;7.108;2023-02-12T00:52:34;49.33;;;26.80;;
5465;SDS011;2755;50.728;7.108;2023-02-12T00:54:59;41.83;;;25.67;;
5465;SDS011;2755;50.728;7.108;2023-02-12T00:57:25;41.93;;;24.03;;
5465;SDS011;2755;50.728;7.108;2023-02-12T00:59:50;53.57;;;25.80;;
5465;SDS011;2755;50.728;7.108;2023-02-12T01:02:16;52.00;;;25.67;;
5465;SDS011;2755;50.728;7.108;2023-02-12T01:04:42;48.50;;;26.73;;
5465;SDS011;2755;50.728;7.108;2023-02-12T01:07:09;40.40;;;23.83;;
5465;SDS011;2755;50.728;7.108;2023-02-12T01:09:34;43.03;;;23.67;;
5465;SDS011;2755;50.728;7.108;2023-02-12T01:12:00;39.50;;;20.80;;
5465;SDS011;2755;50.728;7.108;2023-02-12T01:14:26;38.87;;;22.87;;
5465;SDS011;2755;50.728;7.108;2023-02-12T01:16:51;36.40;;;20.73;;
5465;SDS011;2755;50.728;7.108;2023-02-12T01:19:17;41.57;;;22.03;;
5465;SDS011;2755;50.728;7.108;2023-02-12T01:21:42;39.30;;;21.10;;
5465;SDS011;2755;50.728;7.108;2023-02-12T01:24:08;34.53;;;19.43;;
5465;SDS011;2755;50.728;7.108;2023-02-12T01:26:34;36.80;;;21.10;;
5465;SDS011;2755;50.728;7.108;2023-02-12T01:29:01;35.37;;;19.00;;
5465;SDS011;2755;50.728;7.108;2023-02-12T01:31:30;31.17;;;18.97;;
5465;SDS011;2755;50.728;7.108;2023-02-12T01:33:58;37.23;;;19.50;;
5465;SDS011;2755;50.728;7.108;2023-02-12T01:36:25;36.33;;;20.60;;
5465;SDS011;2755;50.728;7.108;2023-02-12T01:38:52;29.07;;;17.97;;
5465;SDS011;2755;50.728;7.108;2023-02-12T01:41:20;29.90;;;18.23;;
5465;SDS011;2755;50.728;7.108;2023-02-12T01:44:11;44.43;;;24.80;;
5465;SDS011;2755;50.728;7.108;2023-02-12T01:46:45;51.00;;;26.27;;
5465;SDS011;2755;50.728;7.108;2023-02-12T01:49:23;52.63;;;27.10;;
5465;SDS011;2755;50.728;7.108;2023-02-12T01:51:51;45.23;;;25.50;;
5465;SDS011;2755;50.728;7.108;2023-02-12T01:54:22;49.70;;;26.77;;
5465;SDS011;2755;50.728;7.108;2023-02-12T01:56:49;53.67;;;29.00;;
5465;SDS011;2755;50.728;7.108;2023-02-12T01:59:15;52.80;;;27.03;;
5465;SDS011;2755;50.728;7.108;2023-02-12T02:01:42;53.47;;;27.37;;
5465;SDS011;2755;50.728;7.108;2023-02-12T02:04:09;54.17;;;28.20;;
5465;SDS011;2755;50.728;7.108;2023-02-12T02:06:39;53.83;;;28.57;;
5465;SDS011;2755;50.728;7.108;2023-02-12T02:09:21;45.07;;;24.73;;
5465;SDS011;2755;50.728;7.108;2023-02-12T02:11:47;44.03;;;24.63;;
5465;SDS011;2755;50.728;7.108;2023-02-12T02:14:31;39.50;;;22.03;;
5465;SDS011;2755;50.728;7.108;2023-02-12T02:31:05;36.47;;;20.90;;
5465;SDS011;2755;50.728;7.108;2023-02-12T02:33:45;34.70;;;19.20;;
5465;SDS011;2755;50.728;7.108;2023-02-12T02:39:00;31.90;;;17.33;;
5465;SDS011;2755;50.728;7.108;2023-02-12T02:41:35;34.63;;;19.80;;
5465;SDS011;2755;50.728;7.108;2023-02-12T02:44:12;39.50;;;21.03;;
5465;SDS011;2755;50.728;7.108;2023-02-12T02:46:44;29.50;;;17.73;;
5465;SDS011;2755;50.728;7.108;2023-02-12T02:49:16;36.03;;;20.40;;
5465;SDS011;2755;50.728;7.108;2023-02-12T02:51:58;36.70;;;21.53;;
5465;SDS011;2755;50.728;7.108;2023-02-12T02:54:38;34.23;;;19.97;;
5465;SDS011;2755;50.728;7.108;2023-02-12T02:57:13;34.10;;;20.53;;
5465;SDS011;2755;50.728;7.108;2023-02-12T03:00:42;35.93;;;20.30;;
5465;SDS011;2755;50.728;7.108;2023-02-12T03:02:54;33.80;;;20.10;;
5465;SDS011;2755;50.728;7.108;2023-02-12T03:05:34;37.93;;;21.73;;
5465;SDS011;2755;50.728;7.108;2023-02-12T03:08:18;37.93;;;19.13;;
5465;SDS011;2755;50.728;7.108;2023-02-12T03:10:51;32.57;;;19.53;;
5465;SDS011;2755;50.728;7.108;2023-02-12T03:13:29;31.90;;;19.13;;
5465;SDS011;2755;50.728;7.108;2023-02-12T03:16:02;35.57;;;20.00;;
5465;SDS011;2755;50.728;7.108;2023-02-12T03:21:25;34.77;;;20.30;;
5465;SDS011;2755;50.728;7.108;2023-02-12T03:27:09;35.17;;;20.33;;
5465;SDS011;2755;50.728;7.108;2023-02-12T03:29:33;37.83;;;21.50;;
5465;SDS011;2755;50.728;7.108;2023-02-12T03:42:07;45.13;;;24.37;;
5465;SDS011;2755;50.728;7.108;2023-02-12T03:44:53;47.47;;;26.03;;
5465;SDS011;2755;50.728;7.108;2023-02-12T03:50:11;51.90;;;26.40;;
5465;SDS011;2755;50.728;7.108;2023-02-12T03:52:41;42.53;;;25.43;;
5465;SDS011;2755;50.728;7.108;2023-02-12T03:55:08;43.13;;;24.10;;
5465;SDS011;2755;50.728;7.108;2023-02-12T03:57:42;40.70;;;22.30;;
5465;SDS011;2755;50.728;7.108;2023-02-12T04:00:15;47.83;;;25.37;;
5465;SDS011;2755;50.728;7.108;2023-02-12T04:02:44;52.43;;;25.63;;
5465;SDS011;2755;50.728;7.108;2023-02-12T04:05:25;46.13;;;23.27;;
5465;SDS011;2755;50.728;7.108;2023-02-12T04:07:52;47.93;;;26.37;;
5465;SDS011;2755;50.728;7.108;2023-02-12T04:10:21;45.73;;;24.70;;
5465;SDS011;2755;50.728;7.108;2023-02-12T04:18:44;38.80;;;21.77;;
5465;SDS011;2755;50.728;7.108;2023-02-12T04:27:01;34.30;;;20.17;;
5465;SDS011;2755;50.728;7.108;2023-02-12T04:29:39;41.00;;;21.13;;
5465;SDS011;2755;50.728;7.108;2023-02-12T04:32:11;44.83;;;25.07;;
5465;SDS011;2755;50.728;7.108;2023-02-12T04:37:21;37.83;;;22.20;;
5465;SDS011;2755;50.728;7.108;2023-02-12T04:39:48;38.00;;;20.10;;
5465;SDS011;2755;50.728;7.108;2023-02-12T04:42:15;35.67;;;20.27;;
5465;SDS011;2755;50.728;7.108;2023-02-12T04:44:41;37.80;;;21.10;;
5465;SDS011;2755;50.728;7.108;2023-02-12T04:47:11;46.90;;;24.57;;
5465;SDS011;2755;50.728;7.108;2023-02-12T04:49:38;35.13;;;20.77;;
5465;SDS011;2755;50.728;7.108;2023-02-12T04:52:04;38.03;;;21.73;;
5465;SDS011;2755;50.728;7.108;2023-02-12T04:54:30;45.17;;;24.97;;
5465;SDS011;2755;50.728;7.108;2023-02-12T04:56:55;36.57;;;21.13;;
5465;SDS011;2755;50.728;7.108;2023-02-12T04:59:21;39.43;;;21.30;;
5465;SDS011;2755;50.728;7.108;2023-02-12T05:01:47;33.20;;;20.77;;
5465;SDS011;2755;50.728;7.108;2023-02-12T05:04:13;43.00;;;22.23;;
5465;SDS011;2755;50.728;7.108;2023-02-12T05:06:40;37.47;;;19.93;;
5465;SDS011;2755;50.728;7.108;2023-02-12T05:09:07;36.53;;;21.40;;
5465;SDS011;2755;50.728;7.108;2023-02-12T05:11:37;38.10;;;20.27;;
5465;SDS011;2755;50.728;7.108;2023-02-12T05:14:02;40.23;;;22.30;;
5465;SDS011;2755;50.728;7.108;2023-02-12T05:16:28;38.90;;;21.90;;
5465;SDS011;2755;50.728;7.108;2023-02-12T05:18:54;37.80;;;22.10;;
5465;SDS011;2755;50.728;7.108;2023-02-12T05:21:19;39.80;;;21.07;;
5465;SDS011;2755;50.728;7.108;2023-02-12T05:23:45;34.83;;;21.37;;
5465;SDS011;2755;50.728;7.108;2023-02-12T05:26:12;34.37;;;19.90;;
5465;SDS011;2755;50.728;7.108;2023-02-12T05:28:39;43.63;;;21.87;;
5465;SDS011;2755;50.728;7.108;2023-02-12T05:31:06;43.87;;;22.50;;
5465;SDS011;2755;50.728;7.108;2023-02-12T05:33:33;38.30;;;20.90;;
5465;SDS011;2755;50.728;7.108;2023-02-12T05:36:17;35.07;;;21.77;;
5465;SDS011;2755;50.728;7.108;2023-02-12T05:38:45;37.67;;;21.50;;
5465;SDS011;2755;50.728;7.108;2023-02-12T05:41:18;43.10;;;21.30;;
5465;SDS011;2755;50.728;7.108;2023-02-12T05:43:45;43.07;;;22.17;;
5465;SDS011;2755;50.728;7.108;2023-02-12T05:46:11;36.47;;;21.47;;
5465;SDS011;2755;50.728;7.108;2023-02-12T05:48:37;34.20;;;19.67;;
5465;SDS011;2755;50.728;7.108;2023-02-12T05:51:04;45.50;;;24.73;;
5465;SDS011;2755;50.728;7.108;2023-02-12T05:53:39;46.00;;;24.17;;
5465;SDS011;2755;50.728;7.108;2023-02-12T05:56:27;41.80;;;23.37;;
5465;SDS011;2755;50.728;7.108;2023-02-12T05:58:54;39.30;;;21.37;;
5465;SDS011;2755;50.728;7.108;2023-02-12T06:01:29;37.50;;;19.90;;
5465;SDS011;2755;50.728;7.108;2023-02-12T06:03:57;43.50;;;23.97;;
5465;SDS011;2755;50.728;7.108;2023-02-12T06:06:27;38.70;;;20.53;;
5465;SDS011;2755;50.728;7.108;2023-02-12T06:08:54;51.00;;;27.33;;
5465;SDS011;2755;50.728;7.108;2023-02-12T06:11:20;47.53;;;26.10;;
5465;SDS011;2755;50.728;7.108;2023-02-12T06:13:46;54.20;;;27.30;;
5465;SDS011;2755;50.728;7.108;2023-02-12T06:16:22;53.23;;;26.70;;
5465;SDS011;2755;50.728;7.108;2023-02-12T06:18:50;58.47;;;27.57;;
5465;SDS011;2755;50.728;7.108;2023-02-12T06:21:17;59.33;;;27.83;;
5465;SDS011;2755;50.728;7.108;2023-02-12T06:23:44;48.47;;;26.10;;
5465;SDS011;2755;50.728;7.108;2023-02-12T06:26:09;52.30;;;26.33;;
5465;SDS011;2755;50.728;7.108;2023-02-12T06:28:35;51.60;;;28.03;;
5465;SDS011;2755;50.728;7.108;2023-02-12T06:31:01;49.50;;;28.40;;
5465;SDS011;2755;50.728;7.108;2023-02-12T06:33:27;57.87;;;28.47;;
5465;SDS011;2755;50.728;7.108;2023-02-12T06:35:53;48.50;;;26.37;;
5465;SDS011;2755;50.728;7.108;2023-02-12T06:38:18;48.60;;;23.60;;
5465;SDS011;2755;50.728;7.108;2023-02-12T06:40:44;43.70;;;23.53;;
5465;SDS011;2755;50.728;7.108;2023-02-12T06:43:10;46.97;;;24.40;;
5465;SDS011;2755;50.728;7.108;2023-02-12T06:45:35;43.17;;;24.17;;
5465;SDS011;2755;50.728;7.108;2023-02-12T06:48:01;38.93;;;21.80;;
5465;SDS011;2755;50.728;7.108;2023-02-12T06:50:27;39.90;;;20.43;;
5465;SDS011;2755;50.728;7.108;2023-02-12T06:52:53;39.47;;;21.20;;
5465;SDS011;2755;50.728;7.108;2023-02-12T06:55:19;35.77;;;20.53;;
5465;SDS011;2755;50.728;7.108;2023-02-12T06:57:44;41.00;;;22.27;;
5465;SDS011;2755;50.728;7.108;2023-02-12T07:00:10;40.53;;;21.50;;
5465;SDS011;2755;50.728;7.108;2023-02-12T07:02:36;41.13;;;22.40;;
5465;SDS011;2755;50.728;7.108;2023-02-12T07:05:02;40.43;;;21.80;;
5465;SDS011;2755;50.728;7.108;2023-02-12T07:07:28;42.20;;;19.97;;
5465;SDS011;2755;50.728;7.108;2023-02-12T07:09:53;43.60;;;21.67;;
5465;SDS011;2755;50.728;7.108;2023-02-12T07:12:19;40.00;;;22.37;;
5465;SDS011;2755;50.728;7.108;2023-02-12T07:14:45;36.17;;;20.77;;
5465;SDS011;2755;50.728;7.108;2023-02-12T07:17:10;40.70;;;21.27;;
5465;SDS011;2755;50.728;7.108;2023-02-12T07:19:36;45.30;;;23.80;;
5465;SDS011;2755;50.728;7.108;2023-02-12T07:22:01;44.93;;;22.00;;
5465;SDS011;2755;50.728;7.108;2023-02-12T07:24:27;44.50;;;22.43;;
5465;SDS011;2755;50.728;7.108;2023-02-12T07:26:53;31.40;;;18.50;;
5465;SDS011;2755;50.728;7.108;2023-02-12T07:29:18;40.73;;;22.47;;
5465;SDS011;2755;50.728;7.108;2023-02-12T07:31:44;49.07;;;24.83;;
5465;SDS011;2755;50.728;7.108;2023-02-12T07:34:10;42.67;;;23.80;;
5465;SDS011;2755;50.728;7.108;2023-02-12T07:36:36;48.93;;;25.20;;
5465;SDS011;2755;50.728;7.108;2023-02-12T07:39:04;46.53;;;24.27;;
5465;SDS011;2755;50.728;7.108;2023-02-12T07:41:30;46.97;;;23.80;;
5465;SDS011;2755;50.728;7.108;2023-02-12T07:43:58;44.43;;;23.70;;
5465;SDS011;2755;50.728;7.108;2023-02-12T07:46:41;47.70;;;25.87;;
5465;SDS011;2755;50.728;7.108;2023-02-12T07:49:16;46.00;;;24.37;;
5465;SDS011;2755;50.728;7.108;2023-02-12T07:51:44;40.97;;;22.67;;
5465;SDS011;2755;50.728;7.108;2023-02-12T07:54:11;47.10;;;25.17;;
5465;SDS011;2755;50.728;7.108;2023-02-12T07:56:37;52.73;;;28.37;;
5465;SDS011;2755;50.728;7.108;2023-02-12T07:59:06;52.77;;;26.97;;
5465;SDS011;2755;50.728;7.108;2023-02-12T08:01:35;44.57;;;23.63;;
5465;SDS011;2755;50.728;7.108;2023-02-12T08:04:03;47.97;;;23.80;;
5465;SDS011;2755;50.728;7.108;2023-02-12T08:06:32;43.57;;;25.20;;
5465;SDS011;2755;50.728;7.108;2023-02-12T08:09:00;49.00;;;26.23;;
5465;SDS011;2755;50.728;7.108;2023-02-12T08:11:28;47.23;;;25.30;;
5465;SDS011;2755;50.728;7.108;2023-02-12T08:13:55;45.90;;;25.70;;
5465;SDS011;2755;50.728;7.108;2023-02-12T08:16:22;44.90;;;25.17;;
5465;SDS011;2755;50.728;7.108;2023-02-12T08:18:52;43.43;;;23.53;;
5465;SDS011;2755;50.728;7.108;2023-02-12T08:21:19;40.13;;;22.77;;
5465;SDS011;2755;50.728;7.108;2023-02-12T08:23:47;41.20;;;23.00;;
5465;SDS011;2755;50.728;7.108;2023-02-12T08:26:18;46.73;;;23.10;;
5465;SDS011;2755;50.728;7.108;2023-02-12T08:28:45;45.80;;;23.13;;
5465;SDS011;2755;50.728;7.108;2023-02-12T08:31:13;40.57;;;22.27;;
5465;SDS011;2755;50.728;7.108;2023-02-12T08:33:40;34.37;;;19.97;;
5465;SDS011;2755;50.728;7.108;2023-02-12T08:36:07;41.77;;;24.50;;
5465;SDS011;2755;50.728;7.108;2023-02-12T08:38:35;43.23;;;24.23;;
5465;SDS011;2755;50.728;7.108;2023-02-12T08:41:05;45.33;;;23.23;;
5465;SDS011;2755;50.728;7.108;2023-02-12T08:43:33;40.63;;;23.93;;
5465;SDS011;2755;50.728;7.108;2023-02-12T08:46:15;37.83;;;21.00;;
5465;SDS011;2755;50.728;7.108;2023-02-12T08:48:43;46.30;;;22.40;;
5465;SDS011;2755;50.728;7.108;2023-02-12T08:51:10;40.50;;;22.23;;
5465;SDS011;2755;50.728;7.108;2023-02-12T08:53:37;34.83;;;20.37;;
5465;SDS011;2755;50.728;7.108;2023-02-12T08:56:04;41.30;;;22.10;;
5465;SDS011;2755;50.728;7.108;2023-02-12T08:58:30;33.97;;;20.03;;
5465;SDS011;2755;50.728;7.108;2023-02-12T09:00:57;39.17;;;21.70;;
5465;SDS011;2755;50.728;7.108;2023-02-12T09:03:22;39.90;;;22.13;;
5465;SDS011;2755;50.728;7.108;2023-02-12T09:05:48;41.27;;;23.67;;
5465;SDS011;2755;50.728;7.108;2023-02-12T09:08:14;44.20;;;23.37;;
5465;SDS011;2755;50.728;7.108;2023-02-12T09:10:40;32.70;;;19.40;;
5465;SDS011;2755;50.728;7.108;2023-02-12T09:13:07;54.13;;;22.57;;
5465;SDS011;2755;50.728;7.108;2023-02-12T09:15:38;40.03;;;21.97;;
5465;SDS011;2755;50.728;7.108;2023-02-12T09:18:04;37.90;;;21.57;;
5465;SDS011;2755;50.728;7.108;2023-02-12T09:20:32;40.40;;;20.43;;
5465;SDS011;2755;50.728;7.108;2023-02-12T09:22:58;50.17;;;24.37;;
5465;SDS011;2755;50.728;7.108;2023-02-12T09:25:24;40.27;;;21.83;;
5465;SDS011;2755;50.728;7.108;2023-02-12T09:27:51;38.90;;;22.77;;
5465;SDS011;2755;50.728;7.108;2023-02-12T09:30:16;39.73;;;22.70;;
5465;SDS011;2755;50.728;7.108;2023-02-12T09:32:42;45.57;;;24.43;;
5465;SDS011;2755;50.728;7.108;2023-02-12T09:35:08;40.97;;;21.93;;
5465;SDS011;2755;50.728;7.108;2023-02-12T09:37:36;42.90;;;23.37;;
5465;SDS011;2755;50.728;7.108;2023-02-12T09:40:02;43.50;;;23.20;;
5465;SDS011;2755;50.728;7.108;2023-02-12T09:50:31;50.80;;;24.07;;
5465;SDS011;2755;50.728;7.108;2023-02-12T09:53:04;40.80;;;22.40;;
5465;SDS011;2755;50.728;7.108;2023-02-12T09:55:33;52.90;;;23.93;;
5465;SDS011;2755;50.728;7.108;2023-02-12T09:57:59;52.47;;;26.37;;
5465;SDS011;2755;50.728;7.108;2023-02-12T10:00:31;33.43;;;18.93;;
5465;SDS011;2755;50.728;7.108;2023-02-12T10:02:59;45.63;;;22.27;;
5465;SDS011;2755;50.728;7.108;2023-02-12T10:05:30;39.20;;;22.40;;
5465;SDS011;2755;50.728;7.108;2023-02-12T10:08:19;40.33;;;20.80;;
5465;SDS011;2755;50.728;7.108;2023-02-12T10:11:06;39.90;;;21.70;;
5465;SDS011;2755;50.728;7.108;2023-02-12T10:22:01;41.43;;;21.53;;
5465;SDS011;2755;50.728;7.108;2023-02-12T10:24:48;56.50;;;27.90;;
5465;SDS011;2755;50.728;7.108;2023-02-12T10:27:34;43.67;;;22.57;;
5465;SDS011;2755;50.728;7.108;2023-02-12T10:30:38;39.50;;;22.07;;
5465;SDS011;2755;50.728;7.108;2023-02-12T10:33:12;46.43;;;23.63;;
5465;SDS011;2755;50.728;7.108;2023-02-12T10:35:43;55.77;;;28.10;;
5465;SDS011;2755;50.728;7.108;2023-02-12T10:38:18;49.50;;;24.27;;
5465;SDS011;2755;50.728;7.108;2023-02-12T10:40:47;45.30;;;23.60;;
5465;SDS011;2755;50.728;7.108;2023-02-12T10:43:14;55.57;;;26.90;;
5465;SDS011;2755;50.728;7.108;2023-02-12T10:45:40;59.37;;;27.90;;
5465;SDS011;2755;50.728;7.108;2023-02-12T10:51:07;53.57;;;25.73;;
5465;SDS011;2755;50.728;7.108;2023-02-12T10:53:44;56.60;;;28.03;;
5465;SDS011;2755;50.728;7.108;2023-02-12T10:58:36;52.70;;;24.27;;
5465;SDS011;2755;50.728;7.108;2023-02-12T11:01:15;59.33;;;26.40;;
5465;SDS011;2755;50.728;7.108;2023-02-12T11:03:41;45.27;;;24.27;;
5465;SDS011;2755;50.728;7.108;2023-02-12T11:06:14;58.60;;;28.30;;
5465;SDS011;2755;50.728;7.108;2023-02-12T11:08:44;49.10;;;25.30;;
5465;SDS011;2755;50.728;7.108;2023-02-12T11:11:15;50.77;;;25.27;;
5465;SDS011;2755;50.728;7.108;2023-02-12T11:13:52;55.10;;;25.80;;
5465;SDS011;2755;50.728;7.108;2023-02-12T11:16:29;56.63;;;27.57;;
5465;SDS011;2755;50.728;7.108;2023-02-12T11:19:00;59.23;;;26.90;;
5465;SDS011;2755;50.728;7.108;2023-02-12T11:21:31;49.83;;;25.03;;
5465;SDS011;2755;50.728;7.108;2023-02-12T11:24:19;44.87;;;21.80;;
5465;SDS011;2755;50.728;7.108;2023-02-12T11:26:49;42.90;;;21.00;;
5465;SDS011;2755;50.728;7.108;2023-02-12T11:29:19;47.00;;;22.30;;
5465;SDS011;2755;50.728;7.108;2023-02-12T11:32:03;44.97;;;21.33;;
5465;SDS011;2755;50.728;7.108;2023-02-12T11:34:32;49.20;;;22.07;;
5465;SDS011;2755;50.728;7.108;2023-02-12T11:36:59;45.73;;;23.07;;
5465;SDS011;2755;50.728;7.108;2023-02-12T11:39:26;45.27;;;22.10;;
5465;SDS011;2755;50.728;7.108;2023-02-12T11:41:56;38.77;;;20.70;;
5465;SDS011;2755;50.728;7.108;2023-02-12T11:46:53;32.20;;;17.67;;
5465;SDS011;2755;50.728;7.108;2023-02-12T11:49:31;37.13;;;18.40;;
5465;SDS011;2755;50.728;7.108;2023-02-12T11:52:02;41.60;;;20.10;;
5465;SDS011;2755;50.728;7.108;2023-02-12T11:54:29;41.37;;;21.00;;
5465;SDS011;2755;50.728;7.108;2023-02-12T11:57:02;41.00;;;20.00;;
5465;SDS011;2755;50.728;7.108;2023-02-12T11:59:35;40.90;;;19.67;;
5465;SDS011;2755;50.728;7.108;2023-02-12T12:02:48;35.83;;;17.60;;
5465;SDS011;2755;50.728;7.108;2023-02-12T12:05:11;34.90;;;15.17;;
5465;SDS011;2755;50.728;7.108;2023-02-12T12:07:44;30.73;;;15.23;;
5465;SDS011;2755;50.728;7.108;2023-02-12T12:10:36;43.80;;;18.67;;
5465;SDS011;2755;50.728;7.108;2023-02-12T12:13:10;34.40;;;17.00;;
5465;SDS011;2755;50.728;7.108;2023-02-12T12:15:44;30.10;;;14.47;;
5465;SDS011;2755;50.728;7.108;2023-02-12T12:18:47;32.63;;;15.87;;
5465;SDS011;2755;50.728;7.108;2023-02-12T12:24:56;36.93;;;19.07;;
5465;SDS011;2755;50.728;7.108;2023-02-12T12:30:47;35.00;;;18.83;;
5465;SDS011;2755;50.728;7.108;2023-02-12T12:33:34;37.10;;;17.07;;
5465;SDS011;2755;50.728;7.108;2023-02-12T12:41:32;33.87;;;17.90;;
5465;SDS011;2755;50.728;7.108;2023-02-12T12:49:47;36.00;;;17.30;;
5465;SDS011;2755;50.728;7.108;2023-02-12T12:55:34;37.00;;;18.77;;
5465;SDS011;2755;50.728;7.108;2023-02-12T13:07:04;38.57;;;17.33;;
5465;SDS011;2755;50.728;7.108;2023-02-12T13:13:36;34.50;;;16.70;;
5465;SDS011;2755;50.728;7.108;2023-02-12T13:16:00;37.03;;;17.40;;
5465;SDS011;2755;50.728;7.108;2023-02-12T13:19:00;30.87;;;15.93;;
5465;SDS011;2755;50.728;7.108;2023-02-12T13:22:00;26.90;;;14.47;;
5465;SDS011;2755;50.728;7.108;2023-02-12T13:24:46;25.33;;;13.90;;
5465;SDS011;2755;50.728;7.108;2023-02-12T13:27:20;30.30;;;14.37;;
5465;SDS011;2755;50.728;7.108;2023-02-12T13:29:53;33.10;;;18.20;;
5465;SDS011;2755;50.728;7.108;2023-02-12T13:32:28;30.67;;;15.60;;
5465;SDS011;2755;50.728;7.108;2023-02-12T13:34:58;32.50;;;16.37;;
5465;SDS011;2755;50.728;7.108;2023-02-12T13:37:37;38.30;;;16.33;;
5465;SDS011;2755;50.728;7.108;2023-02-12T13:40:13;34.00;;;16.70;;
5465;SDS011;2755;50.728;7.108;2023-02-12T13:48:19;33.70;;;17.77;;
5465;SDS011;2755;50.728;7.108;2023-02-12T13:53:17;37.10;;;18.03;;
5465;SDS011;2755;50.728;7.108;2023-02-12T13:58:54;38.17;;;18.63;;
5465;SDS011;2755;50.728;7.108;2023-02-12T14:01:40;35.33;;;15.90;;
5465;SDS011;2755;50.728;7.108;2023-02-12T14:04:19;32.50;;;15.40;;
5465;SDS011;2755;50.728;7.108;2023-02-12T14:07:14;28.53;;;14.97;;
5465;SDS011;2755;50.728;7.108;2023-02-12T14:09:41;29.93;;;15.70;;
5465;SDS011;2755;50.728;7.108;2023-02-12T14:12:13;27.10;;;13.90;;
5465;SDS011;2755;50.728;7.108;2023-02-12T14:14:49;32.60;;;17.70;;
5465;SDS011;2755;50.728;7.108;2023-02-12T14:20:07;34.80;;;17.67;;
5465;SDS011;2755;50.728;7.108;2023-02-12T14:28:08;28.67;;;14.30;;
5465;SDS011;2755;50.728;7.108;2023-02-12T14:33:44;35.43;;;16.20;;
5465;SDS011;2755;50.728;7.108;2023-02-12T14:36:15;31.33;;;14.70;;
5465;SDS011;2755;50.728;7.108;2023-02-12T14:41:21;29.30;;;14.37;;
5465;SDS011;2755;50.728;7.108;2023-02-12T14:55:59;33.70;;;16.83;;
5465;SDS011;2755;50.728;7.108;2023-02-12T14:58:26;34.80;;;15.73;;
5465;SDS011;2755;50.728;7.108;2023-02-12T15:00:54;25.27;;;13.40;;
5465;SDS011;2755;50.728;7.108;2023-02-12T15:06:06;28.00;;;14.47;;
5465;SDS011;2755;50.728;7.108;2023-02-12T15:11:40;33.07;;;16.17;;
5465;SDS011;2755;50.728;7.108;2023-02-12T15:14:26;30.97;;;15.43;;
5465;SDS011;2755;50.728;7.108;2023-02-12T15:17:11;30.47;;;14.77;;
5465;SDS011;2755;50.728;7.108;2023-02-12T15:22:38;29.67;;;12.47;;
5465;SDS011;2755;50.728;7.108;2023-02-12T15:25:15;24.57;;;12.10;;
5465;SDS011;2755;50.728;7.108;2023-02-12T15:27:48;20.83;;;10.40;;
5465;SDS011;2755;50.728;7.108;2023-02-12T15:30:16;30.03;;;13.30;;
5465;SDS011;2755;50.728;7.108;2023-02-12T15:32:44;19.33;;;10.50;;
5465;SDS011;2755;50.728;7.108;2023-02-12T15:35:27;22.47;;;10.90;;
5465;SDS011;2755;50.728;7.108;2023-02-12T15:37:56;24.07;;;11.57;;
5465;SDS011;2755;50.728;7.108;2023-02-12T15:40:24;17.20;;;10.83;;
5465;SDS011;2755;50.728;7.108;2023-02-12T15:42:57;22.83;;;11.50;;
5465;SDS011;2755;50.728;7.108;2023-02-12T15:45:25;18.47;;;9.73;;
5465;SDS011;2755;50.728;7.108;2023-02-12T15:48:38;13.20;;;7.83;;
5465;SDS011;2755;50.728;7.108;2023-02-12T15:53:19;14.03;;;7.93;;
5465;SDS011;2755;50.728;7.108;2023-02-12T15:55:48;14.63;;;7.87;;
5465;SDS011;2755;50.728;7.108;2023-02-12T15:58:19;15.13;;;7.37;;
5465;SDS011;2755;50.728;7.108;2023-02-12T16:00:53;13.97;;;8.50;;
5465;SDS011;2755;50.728;7.108;2023-02-12T16:05:56;12.83;;;7.10;;
5465;SDS011;2755;50.728;7.108;2023-02-12T16:08:27;9.87;;;6.00;;
5465;SDS011;2755;50.728;7.108;2023-02-12T16:10:55;8.37;;;5.37;;
5465;SDS011;2755;50.728;7.108;2023-02-12T16:13:32;8.17;;;5.00;;
5465;SDS011;2755;50.728;7.108;2023-02-12T16:16:03;8.13;;;4.83;;
5465;SDS011;2755;50.728;7.108;2023-02-12T16:18:28;6.80;;;4.07;;
5465;SDS011;2755;50.728;7.108;2023-02-12T16:21:05;8.80;;;4.50;;
5465;SDS011;2755;50.728;7.108;2023-02-12T16:23:43;7.27;;;4.73;;
5465;SDS011;2755;50.728;7.108;2023-02-12T16:26:17;9.27;;;4.57;;
5465;SDS011;2755;50.728;7.108;2023-02-12T16:28:46;10.67;;;4.87;;
5465;SDS011;2755;50.728;7.108;2023-02-12T16:31:13;7.53;;;4.50;;
5465;SDS011;2755;50.728;7.108;2023-02-12T16:33:41;13.23;;;4.80;;
5465;SDS011;2755;50.728;7.108;2023-02-12T16:36:14;8.30;;;5.03;;
5465;SDS011;2755;50.728;7.108;2023-02-12T16:38:55;8.53;;;4.50;;
5465;SDS011;2755;50.728;7.108;2023-02-12T16:46:32;10.93;;;5.70;;
5465;SDS011;2755;50.728;7.108;2023-02-12T16:49:08;7.80;;;4.50;;
5465;SDS011;2755;50.728;7.108;2023-02-12T16:51:46;8.03;;;4.97;;
5465;SDS011;2755;50.728;7.108;2023-02-12T16:56:53;10.40;;;5.40;;
5465;SDS011;2755;50.728;7.108;2023-02-12T16:59:19;10.93;;;5.27;;
5465;SDS011;2755;50.728;7.108;2023-02-12T17:01:55;10.33;;;5.70;;
5465;SDS011;2755;50.728;7.108;2023-02-12T17:04:23;10.50;;;5.77;;
5465;SDS011;2755;50.728;7.108;2023-02-12T17:06:49;11.50;;;7.03;;
5465;SDS011;2755;50.728;7.108;2023-02-12T17:09:15;13.33;;;6.77;;
5465;SDS011;2755;50.728;7.108;2023-02-12T17:11:40;13.27;;;7.37;;
5465;SDS011;2755;50.728;7.108;2023-02-12T17:14:11;18.43;;;10.30;;
5465;SDS011;2755;50.728;7.108;2023-02-12T17:16:43;21.50;;;12.80;;
5465;SDS011;2755;50.728;7.108;2023-02-12T17:19:09;22.60;;;12.20;;
5465;SDS011;2755;50.728;7.108;2023-02-12T17:21:36;22.67;;;12.20;;
5465;SDS011;2755;50.728;7.108;2023-02-12T17:24:05;23.77;;;12.03;;
5465;SDS011;2755;50.728;7.108;2023-02-12T17:26:35;25.97;;;13.73;;
5465;SDS011;2755;50.728;7.108;2023-02-12T17:29:00;20.47;;;11.83;;
5465;SDS011;2755;50.728;7.108;2023-02-12T17:31:30;23.77;;;12.40;;
5465;SDS011;2755;50.728;7.108;2023-02-12T17:33:56;22.50;;;11.90;;
5465;SDS011;2755;50.728;7.108;2023-02-12T17:36:22;25.33;;;13.70;;
5465;SDS011;2755;50.728;7.108;2023-02-12T17:38:48;24.43;;;11.33;;
5465;SDS011;2755;50.728;7.108;2023-02-12T17:41:14;25.40;;;12.20;;
5465;SDS011;2755;50.728;7.108;2023-02-12T17:43:39;30.70;;;16.17;;
5465;SDS011;2755;50.728;7.108;2023-02-12T17:46:12;26.60;;;14.63;;
5465;SDS011;2755;50.728;7.108;2023-02-12T17:48:42;25.03;;;12.93;;
5465;SDS011;2755;50.728;7.108;2023-02-12T17:51:08;32.33;;;13.97;;
5465;SDS011;2755;50.728;7.108;2023-02-12T17:53:35;39.30;;;14.40;;
5465;SDS011;2755;50.728;7.108;2023-02-12T17:56:01;23.37;;;12.40;;
5465;SDS011;2755;50.728;7.108;2023-02-12T17:58:27;28.40;;;12.77;;